x

Yucatan Basin - 120 Nm Ese Of Cozumel, Mx (42056) Wave Buoy

6:50pm - Wed 23rd Apr 2014 All times are CDT. -5 hours from GMT.

  • Sig Wave height 1.3ft
  • Swell Direction
  • Peak Period 7s
  • Average Period 5s
  • Wind
  • Sea Temp 87°f
  • 空気 Temp 81°f
  • Sea Pressure 1012.1mb
  •  Yucatan Basin - 120 Nm Ese Of Cozumel, Mx
  •  Yucatan Basin - 120 Nm Ese Of Cozumel, Mx

More Historic Weather Station data

Upgrade to MSW Pro to gain access to the past 30 days of data for over 8000 Wavebouys and Weather Stations around the globe.

Join Pro

Comparision Forecast

View Surf forecast
   
Wed 04/23 6:50pm 1.3ft 7s 5s  -  2 mph 1012.1mb 87f 81f
5:50pm 1.6ft 8s 5s  -  2 mph 1011.8mb 87f 81f
4:50pm 1.6ft 8s 5s 2 4 mph 1011.5mb 87f 81f
3:50pm 1.3ft 8s 5s 2 4 mph 1011.8mb 87f 81f
2:50pm 1.3ft 7s 5s  -  4 mph 1012.3mb 88f 81f
1:50pm 1.3ft 8s 5s 2
mph
1013mb 86f 80f
12:50pm 1.6ft 8s 5s 2 4 mph 1013.8mb 85f 80f
11:50am 1.6ft 9s 5s  -  2 mph 1014.3mb 84f 80f
10:50am 1.6ft 8s 5s 2 4 mph 1014.4mb 84f 79f
9:50am 1.6ft 8s 5s 2 4 mph 1014.3mb 83f 79f
8:50am 1.6ft 8s 5s 2 4 mph 1013.8mb 82f 79f
7:50am 1.6ft 8s 5s 2 4 mph 1013.3mb 82f 79f
6:50am 1.6ft 8s 5s 2 4 mph 1012.6mb 82f 78f
5:50am 1.6ft 8s 5s 4
mph
1012mb 82f 78f
4:50am 1.6ft 8s 5s 2 4 mph 1011.9mb 82f 78f
3:50am 1.6ft 7s 5s 2 4 mph 1011.5mb 82f 78f
2:50am 1.6ft 8s 5s 4 7 mph 1011.6mb 82f 78f
1:50am 1.6ft 8s 5s 4
mph
1012mb 82f 78f
12:50am 1.6ft 8s 5s 7 9 mph 1012.5mb 82f 79f
Tue 04/22 11:50pm 1.6ft 8s 5s 4 7 mph 1013mb 82f 79f
10:50pm 1.6ft 8s 5s 4 7 mph 1013.1mb 82f 79f
9:50pm 1.6ft 8s 5s 7
mph
1012.8mb 82f 79f
8:50pm 1.6ft 8s 5s 4 7 mph 1012.7mb 82f 79f
7:50pm 1.6ft 8s 5s 4 7 mph 1012.2mb 82f 79f
6:50pm 1.6ft 8s 5s 9 11 mph 1011.6mb 83f 79f
5:50pm 1.6ft 8s 5s 9
mph
1011.4mb 83f 80f
4:50pm 1.6ft 8s 5s 4 9 mph 1011.4mb 83f 79f
3:50pm 1.6ft 9s 5s 4 7 mph 1011.7mb 84f 80f
2:50pm 1.6ft 8s 5s 2 7 mph 1012.2mb 84f 79f
1:50pm 2ft 8s 5s 4 7 mph 1012.5mb 83f 79f
12:50pm 2ft 8s 5s 2 4 mph 1013.4mb 83f 79f
11:50am 2ft 8s 5s 4 7 mph 1014.1mb 83f 78f
10:50am 2ft 6s 5s 4 7 mph 1014.6mb 82f 78f
9:50am 2.5ft 8s 5s 7 9 mph 1014.4mb 82f 78f
8:50am 2ft 7s 5s 4 9 mph 1013.9mb 82f 78f
7:50am 2ft 8s 5s 7 9 mph 1013.5mb 82f 78f
6:50am 2ft 7s 5s 4 7 mph 1012.6mb 82f 78f
5:50am 2ft 7s 5s 2 4 mph 1012.2mb 82f 78f
4:50am 2ft 8s 5s 4 7 mph 1011.9mb 82f 78f
3:50am 2ft 8s 5s 2 4 mph 1012mb 82f 78f
2:50am 2.5ft 9s 5s 4 7 mph 1012.3mb 82f 78f
1:50am 2.5ft 8s 5s 4
mph
1013.1mb 82f 78f
12:50am 2.5ft 9s 5s 7 9 mph 1013.9mb 82f 78f
Mon 04/21 11:50pm 2.5ft 8s 5s 4 9 mph 1014.5mb 82f 79f
10:50pm 2.5ft 8s 5s 4 7 mph 1014.7mb 82f 79f
9:50pm 2.5ft 8s 5s 9 11 mph 1014.5mb 82f 78f
8:50pm 2.5ft 8s 5s 9 13 mph 1014.2mb 82f 78f
7:50pm 2.5ft 8s 5s 11 13 mph 1013.6mb 82f 78f
6:50pm 2.5ft 8s 5s 11 13 mph 1013mb 82f 78f
5:50pm 2.5ft 8s 5s 9 13 mph 1012.9mb 82f 78f
4:50pm 2.5ft 8s 5s 11 13 mph 1012.9mb 82f 79f
3:50pm 2.5ft 8s 5s 11 16 mph 1013.3mb 82f 79f
2:50pm 3ft 8s 5s 11 16 mph 1013.7mb 82f 79f
1:50pm 3ft 8s 5s 9 13 mph 1014.6mb 82f 79f
12:50pm 3ft 8s 5s 11
mph
1015.1mb 82f 79f
11:50am 3ft 8s 5s 11 13 mph 1015.7mb 82f 78f
10:50am 3.5ft 8s 5s 13 16 mph 1016mb 82f 78f
9:50am 3.5ft 8s 5s 11 16 mph 1016mb 82f 79f
8:50am 3.5ft 8s 5s 13 18 mph 1015.8mb 82f 78f
7:50am 3.5ft 5s 5s 13 18 mph 1015.6mb 82f 78f
6:50am 3.5ft 5s 5s 16 18 mph 1015.2mb 82f 78f
5:50am 3.5ft 5s 5s 13 18 mph 1014.8mb 82f 78f
4:50am 3.5ft 8s 5s 16 18 mph 1014.3mb 82f 78f
3:50am 3.5ft 8s 5s 13 18 mph 1014.5mb 82f 78f
2:50am 3.5ft 8s 5s 13 18 mph 1014.8mb 82f 78f
1:50am 3.5ft 8s 5s 13 18 mph 1015mb 82f 78f
12:50am 3ft 8s 5s 13 18 mph 1015.6mb 82f 79f
Sun 04/20 11:50pm 3ft 8s 5s 13 18 mph 1016.2mb 82f 79f
10:50pm 3ft 8s 5s 13 16 mph 1016.1mb 82f 79f
9:50pm 3ft 8s 5s 13 16 mph 1016mb 82f 79f
8:50pm 3ft 8s 5s 13
mph
1015.9mb 82f 79f
7:50pm 3.5ft 8s 5s 13 16 mph 1015.4mb 82f 79f
6:50pm 3.5ft 8s 5s 16 18 mph 1015mb 82f 79f
5:50pm 3.5ft 8s 5s 13 18 mph 1014.9mb 82f 79f
4:50pm 3.5ft 5s 5s 13 16 mph 1015.1mb 82f 79f
3:50pm 3.5ft 8s 5s 13 16 mph 1015.3mb 82f 79f
2:50pm 3.5ft 6s 5s 16 18 mph 1015.4mb 82f 79f
12:50pm 3.5ft 5s 5s 16 18 mph 1016.5mb 82f 79f
11:50am 4ft 5s 5s 13 18 mph 1017.1mb 82f 79f
10:50am 3.5ft 5s 5s 16 18 mph 1017.2mb 82f 79f
9:50am 3.5ft 5s 5s 18 22 mph 1017mb 82f 79f
8:50am 3.5ft 5s 5s 18 20 mph 1016.7mb 82f 79f
7:50am 3.5ft 5s 5s 16 18 mph 1016.3mb 82f 79f
6:50am 3.5ft 5s 4s 16 18 mph 1016.1mb 82f 80f
5:50am 3ft 4s 4s 18 20 mph 1015.2mb 82f 79f
4:50am 3ft 7s 5s 16 18 mph 1015mb 82f 80f
3:50am 2.5ft 9s 4s 18 20 mph 1014.5mb 82f 80f
2:50am 2.5ft 7s 5s 16 18 mph 1014.4mb 82f 80f
1:50am 2.5ft 7s 5s 13 16 mph 1014.8mb 82f 81f